sensor_id;sensor_type;location;lat;lon;timestamp;pressure;altitude;pressure_sealevel;temperature;humidity
60061;BME280;45933;51.336;12.612;2024-02-21T00:01:33;100520.25;;;9.57;57.02
60061;BME280;45933;51.336;12.612;2024-02-21T00:03:58;100533.25;;;9.57;57.12
60061;BME280;45933;51.336;12.612;2024-02-21T00:06:23;100527.19;;;9.58;56.89
60061;BME280;45933;51.336;12.612;2024-02-21T00:08:49;100515.03;;;9.55;56.86
60061;BME280;45933;51.336;12.612;2024-02-21T00:11:14;100510.69;;;9.56;56.91
60061;BME280;45933;51.336;12.612;2024-02-21T00:13:39;100511.56;;;9.55;57.21
60061;BME280;45933;51.336;12.612;2024-02-21T00:16:05;100521.97;;;9.58;56.88
60061;BME280;45933;51.336;12.612;2024-02-21T00:18:30;100508.97;;;9.56;56.86
60061;BME280;45933;51.336;12.612;2024-02-21T00:20:56;100502.84;;;9.54;57.30
60061;BME280;45933;51.336;12.612;2024-02-21T00:23:21;100508.09;;;9.56;56.88
60061;BME280;45933;51.336;12.612;2024-02-21T00:25:46;100493.34;;;9.56;57.17
60061;BME280;45933;51.336;12.612;2024-02-21T00:28:11;100487.28;;;9.56;57.17
60061;BME280;45933;51.336;12.612;2024-02-21T00:30:37;100495.09;;;9.57;57.20
60061;BME280;45933;51.336;12.612;2024-02-21T00:33:03;100488.09;;;9.53;57.12
60061;BME280;45933;51.336;12.612;2024-02-21T00:35:28;100489.84;;;9.54;57.27
60061;BME280;45933;51.336;12.612;2024-02-21T00:37:53;100489.84;;;9.51;56.92
60061;BME280;45933;51.336;12.612;2024-02-21T00:40:19;100483.78;;;9.51;56.95
60061;BME280;45933;51.336;12.612;2024-02-21T00:42:46;100477.66;;;9.49;57.13
60061;BME280;45933;51.336;12.612;2024-02-21T00:45:11;100473.34;;;9.46;57.09
60061;BME280;45933;51.336;12.612;2024-02-21T00:47:37;100477.66;;;9.42;57.11
60061;BME280;45933;51.336;12.612;2024-02-21T00:50:02;100472.44;;;9.41;57.25
60061;BME280;45933;51.336;12.612;2024-02-21T00:52:27;100460.25;;;9.32;57.52
60061;BME280;45933;51.336;12.612;2024-02-21T00:54:53;100465.44;;;9.32;57.53
60061;BME280;45933;51.336;12.612;2024-02-21T00:57:18;100464.59;;;9.30;57.68
60061;BME280;45933;51.336;12.612;2024-02-21T00:59:43;100455.00;;;9.28;57.36
60061;BME280;45933;51.336;12.612;2024-02-21T01:02:08;100456.75;;;9.27;57.42
60061;BME280;45933;51.336;12.612;2024-02-21T01:04:34;100460.22;;;9.25;57.44
60061;BME280;45933;51.336;12.612;2024-02-21T01:06:59;100451.50;;;9.21;57.90
60061;BME280;45933;51.336;12.612;2024-02-21T01:09:25;100451.50;;;9.18;57.74
60061;BME280;45933;51.336;12.612;2024-02-21T01:11:50;100449.75;;;9.17;58.27
60061;BME280;45933;51.336;12.612;2024-02-21T01:14:15;100443.66;;;9.12;58.29
60061;BME280;45933;51.336;12.612;2024-02-21T01:16:41;100441.91;;;9.11;58.06
60061;BME280;45933;51.336;12.612;2024-02-21T01:19:06;100435.88;;;9.13;58.04
60061;BME280;45933;51.336;12.612;2024-02-21T01:21:31;100441.94;;;9.12;58.14
60061;BME280;45933;51.336;12.612;2024-02-21T01:23:56;100434.09;;;9.06;58.48
60061;BME280;45933;51.336;12.612;2024-02-21T01:26:22;100431.47;;;9.03;58.40
60061;BME280;45933;51.336;12.612;2024-02-21T01:28:47;100428.88;;;9.06;58.24
60061;BME280;45933;51.336;12.612;2024-02-21T01:31:12;100422.81;;;9.06;58.24
60061;BME280;45933;51.336;12.612;2024-02-21T01:33:38;100424.53;;;9.07;58.09
60061;BME280;45933;51.336;12.612;2024-02-21T01:36:04;100418.47;;;9.05;58.25
60061;BME280;45933;51.336;12.612;2024-02-21T01:38:31;100419.34;;;9.07;57.97
60061;BME280;45933;51.336;12.612;2024-02-21T01:40:57;100415.03;;;9.07;57.85
60061;BME280;45933;51.336;12.612;2024-02-21T01:43:22;100412.41;;;9.06;58.50
60061;BME280;45933;51.336;12.612;2024-02-21T01:45:50;100416.75;;;9.04;58.62
60061;BME280;45933;51.336;12.612;2024-02-21T01:48:18;100406.34;;;9.02;58.57
60061;BME280;45933;51.336;12.612;2024-02-21T01:50:44;100404.59;;;9.03;58.63
60061;BME280;45933;51.336;12.612;2024-02-21T01:53:10;100401.13;;;9.04;58.59
60061;BME280;45933;51.336;12.612;2024-02-21T01:55:35;100395.94;;;9.04;58.45
60061;BME280;45933;51.336;12.612;2024-02-21T01:58:01;100402.88;;;9.05;58.63
60061;BME280;45933;51.336;12.612;2024-02-21T02:00:27;100391.59;;;9.04;58.30
60061;BME280;45933;51.336;12.612;2024-02-21T02:02:53;100398.53;;;9.04;58.53
60061;BME280;45933;51.336;12.612;2024-02-21T02:05:19;100395.94;;;9.05;58.51
60061;BME280;45933;51.336;12.612;2024-02-21T02:07:46;100391.63;;;9.07;58.69
60061;BME280;45933;51.336;12.612;2024-02-21T02:10:11;100390.78;;;9.08;58.44
60061;BME280;45933;51.336;12.612;2024-02-21T02:12:36;100387.31;;;9.09;58.56
60061;BME280;45933;51.336;12.612;2024-02-21T02:15:03;100383.84;;;9.09;58.44
60061;BME280;45933;51.336;12.612;2024-02-21T02:17:31;100381.22;;;9.04;58.61
60061;BME280;45933;51.336;12.612;2024-02-21T02:19:56;100376.03;;;9.09;58.42
60061;BME280;45933;51.336;12.612;2024-02-21T02:22:23;100365.63;;;9.10;58.50
60061;BME280;45933;51.336;12.612;2024-02-21T02:24:52;100375.16;;;9.11;58.62
60061;BME280;45933;51.336;12.612;2024-02-21T02:27:17;100367.38;;;9.10;58.28
60061;BME280;45933;51.336;12.612;2024-02-21T02:29:42;100350.03;;;9.12;58.67
60061;BME280;45933;51.336;12.612;2024-02-21T02:32:08;100352.66;;;9.13;58.31
60061;BME280;45933;51.336;12.612;2024-02-21T02:34:34;100352.66;;;9.15;58.05
60061;BME280;45933;51.336;12.612;2024-02-21T02:36:59;100347.44;;;9.15;58.26
60061;BME280;45933;51.336;12.612;2024-02-21T02:39:24;100350.06;;;9.13;58.43
60061;BME280;45933;51.336;12.612;2024-02-21T02:41:49;100346.56;;;9.11;58.70
60061;BME280;45933;51.336;12.612;2024-02-21T02:44:15;100341.38;;;9.14;58.11
60061;BME280;45933;51.336;12.612;2024-02-21T02:46:41;100334.41;;;9.12;58.26
60061;BME280;45933;51.336;12.612;2024-02-21T02:49:06;100321.41;;;9.10;58.57
60061;BME280;45933;51.336;12.612;2024-02-21T02:51:32;100331.81;;;9.07;58.59
60061;BME280;45933;51.336;12.612;2024-02-21T02:53:57;100327.47;;;9.11;58.44
60061;BME280;45933;51.336;12.612;2024-02-21T02:56:22;100325.75;;;9.11;58.67
60061;BME280;45933;51.336;12.612;2024-02-21T02:58:47;100335.28;;;9.11;58.32
60061;BME280;45933;51.336;12.612;2024-02-21T03:01:13;100330.09;;;9.11;58.56
60061;BME280;45933;51.336;12.612;2024-02-21T03:03:39;100333.56;;;9.11;58.34
60061;BME280;45933;51.336;12.612;2024-02-21T03:06:04;100323.16;;;9.10;58.63
60061;BME280;45933;51.336;12.612;2024-02-21T03:08:29;100326.63;;;9.10;58.31
60061;BME280;45933;51.336;12.612;2024-02-21T03:10:54;100325.75;;;9.11;58.37
60061;BME280;45933;51.336;12.612;2024-02-21T03:13:20;100318.84;;;9.13;58.36
60061;BME280;45933;51.336;12.612;2024-02-21T03:15:45;100305.84;;;9.13;58.19
60061;BME280;45933;51.336;12.612;2024-02-21T03:18:10;100312.78;;;9.16;58.63
60061;BME280;45933;51.336;12.612;2024-02-21T03:20:35;100308.44;;;9.13;58.17
60061;BME280;45933;51.336;12.612;2024-02-21T03:23:01;100308.44;;;9.13;58.05
60061;BME280;45933;51.336;12.612;2024-02-21T03:25:26;100307.56;;;9.14;58.29
60061;BME280;45933;51.336;12.612;2024-02-21T03:27:51;100315.38;;;9.14;58.31
60061;BME280;45933;51.336;12.612;2024-02-21T03:30:16;100306.72;;;9.14;58.28
60061;BME280;45933;51.336;12.612;2024-02-21T03:32:42;100317.09;;;9.15;58.01
60061;BME280;45933;51.336;12.612;2024-02-21T03:35:07;100311.91;;;9.14;58.04
60061;BME280;45933;51.336;12.612;2024-02-21T03:37:32;100321.44;;;9.16;58.07
60061;BME280;45933;51.336;12.612;2024-02-21T03:39:57;100314.50;;;9.14;57.99
60061;BME280;45933;51.336;12.612;2024-02-21T03:42:23;100319.69;;;9.09;58.51
60061;BME280;45933;51.336;12.612;2024-02-21T03:44:48;100320.56;;;9.10;58.28
60061;BME280;45933;51.336;12.612;2024-02-21T03:47:13;100324.03;;;9.09;58.54
60061;BME280;45933;51.336;12.612;2024-02-21T03:49:39;100324.03;;;9.10;58.28
60061;BME280;45933;51.336;12.612;2024-02-21T03:52:04;100322.28;;;9.09;58.64
60061;BME280;45933;51.336;12.612;2024-02-21T03:54:29;100321.41;;;9.10;58.43
60061;BME280;45933;51.336;12.612;2024-02-21T03:56:54;100319.69;;;9.11;58.61
60061;BME280;45933;51.336;12.612;2024-02-21T03:59:20;100326.63;;;9.12;58.51
60061;BME280;45933;51.336;12.612;2024-02-21T04:01:51;100332.72;;;9.14;58.47
60061;BME280;45933;51.336;12.612;2024-02-21T04:04:17;100329.25;;;9.13;58.29
60061;BME280;45933;51.336;12.612;2024-02-21T04:06:51;100320.59;;;9.18;58.28
60061;BME280;45933;51.336;12.612;2024-02-21T04:09:17;100323.16;;;9.16;58.14
60061;BME280;45933;51.336;12.612;2024-02-21T04:11:42;100318.84;;;9.16;58.53
60061;BME280;45933;51.336;12.612;2024-02-21T04:14:08;100316.25;;;9.20;58.49
60061;BME280;45933;51.336;12.612;2024-02-21T04:16:34;100315.38;;;9.16;58.51
60061;BME280;45933;51.336;12.612;2024-02-21T04:18:59;100313.66;;;9.21;58.23
60061;BME280;45933;51.336;12.612;2024-02-21T04:21:24;100315.38;;;9.22;58.38
60061;BME280;45933;51.336;12.612;2024-02-21T04:23:50;100311.06;;;9.21;58.29
60061;BME280;45933;51.336;12.612;2024-02-21T04:26:15;100307.63;;;9.24;58.20
60061;BME280;45933;51.336;12.612;2024-02-21T04:28:40;100308.47;;;9.24;58.16
60061;BME280;45933;51.336;12.612;2024-02-21T04:31:06;100302.41;;;9.24;58.28
60061;BME280;45933;51.336;12.612;2024-02-21T04:33:31;100305.00;;;9.24;58.46
60061;BME280;45933;51.336;12.612;2024-02-21T04:35:56;100298.94;;;9.28;58.30
60061;BME280;45933;51.336;12.612;2024-02-21T04:38:23;100301.53;;;9.26;58.07
60061;BME280;45933;51.336;12.612;2024-02-21T04:40:48;100292.00;;;9.27;58.56
60061;BME280;45933;51.336;12.612;2024-02-21T04:43:14;100282.47;;;9.26;58.40
60061;BME280;45933;51.336;12.612;2024-02-21T04:45:39;100286.81;;;9.25;58.76
60061;BME280;45933;51.336;12.612;2024-02-21T04:48:04;100284.22;;;9.28;58.59
60061;BME280;45933;51.336;12.612;2024-02-21T04:50:30;100285.94;;;9.29;58.81
60061;BME280;45933;51.336;12.612;2024-02-21T04:52:55;100281.63;;;9.28;59.03
60061;BME280;45933;51.336;12.612;2024-02-21T04:55:20;100279.03;;;9.28;58.85
60061;BME280;45933;51.336;12.612;2024-02-21T04:57:45;100284.22;;;9.30;58.67
60061;BME280;45933;51.336;12.612;2024-02-21T05:00:11;100278.13;;;9.20;59.16
60061;BME280;45933;51.336;12.612;2024-02-21T05:02:36;100265.13;;;9.26;59.06
60061;BME280;45933;51.336;12.612;2024-02-21T05:05:01;100254.72;;;9.25;59.08
60061;BME280;45933;51.336;12.612;2024-02-21T05:07:27;100246.06;;;9.26;59.22
60061;BME280;45933;51.336;12.612;2024-02-21T05:09:52;100239.97;;;9.27;59.16
60061;BME280;45933;51.336;12.612;2024-02-21T05:12:18;100245.19;;;9.28;58.98
60061;BME280;45933;51.336;12.612;2024-02-21T05:14:43;100242.56;;;9.19;59.29
60061;BME280;45933;51.336;12.612;2024-02-21T05:17:08;100242.59;;;9.28;59.28
60061;BME280;45933;51.336;12.612;2024-02-21T05:19:33;100235.66;;;9.29;59.19
60061;BME280;45933;51.336;12.612;2024-02-21T05:21:59;100229.59;;;9.30;59.19
60061;BME280;45933;51.336;12.612;2024-02-21T05:24:24;100229.56;;;9.25;59.24
60061;BME280;45933;51.336;12.612;2024-02-21T05:26:50;100223.50;;;9.26;59.15
60061;BME280;45933;51.336;12.612;2024-02-21T05:29:15;100213.13;;;9.29;59.14
60061;BME280;45933;51.336;12.612;2024-02-21T05:34:18;100212.25;;;9.30;59.37
60061;BME280;45933;51.336;12.612;2024-02-21T05:36:43;100216.59;;;9.30;59.28
60061;BME280;45933;51.336;12.612;2024-02-21T05:39:09;100220.06;;;9.30;59.28
60061;BME280;45933;51.336;12.612;2024-02-21T05:41:34;100208.78;;;9.28;59.33
60061;BME280;45933;51.336;12.612;2024-02-21T05:43:59;100213.09;;;9.28;59.46
60061;BME280;45933;51.336;12.612;2024-02-21T05:46:25;100201.81;;;9.23;59.75
60061;BME280;45933;51.336;12.612;2024-02-21T05:48:50;100199.22;;;9.27;59.46
60061;BME280;45933;51.336;12.612;2024-02-21T05:51:15;100201.81;;;9.23;59.90
60061;BME280;45933;51.336;12.612;2024-02-21T05:53:41;100202.69;;;9.22;59.98
60061;BME280;45933;51.336;12.612;2024-02-21T05:56:13;100201.81;;;9.27;59.75
60061;BME280;45933;51.336;12.612;2024-02-21T05:58:38;100214.84;;;9.26;59.47
60061;BME280;45933;51.336;12.612;2024-02-21T06:01:04;100205.28;;;9.20;59.98
60061;BME280;45933;51.336;12.612;2024-02-21T06:03:30;100204.44;;;9.18;60.00
60061;BME280;45933;51.336;12.612;2024-02-21T06:05:55;100211.34;;;9.14;60.49
60061;BME280;45933;51.336;12.612;2024-02-21T06:08:21;100197.47;;;9.14;60.42
60061;BME280;45933;51.336;12.612;2024-02-21T06:10:46;100203.50;;;9.05;61.15
60061;BME280;45933;51.336;12.612;2024-02-21T06:13:12;100188.78;;;9.03;61.34
60061;BME280;45933;51.336;12.612;2024-02-21T06:15:37;100193.09;;;8.98;61.41
60061;BME280;45933;51.336;12.612;2024-02-21T06:18:03;100181.84;;;9.06;60.84
60061;BME280;45933;51.336;12.612;2024-02-21T06:20:28;100181.00;;;9.03;60.88
60061;BME280;45933;51.336;12.612;2024-02-21T06:22:54;100194.84;;;9.06;60.67
60061;BME280;45933;51.336;12.612;2024-02-21T06:25:19;100185.31;;;9.05;60.63
60061;BME280;45933;51.336;12.612;2024-02-21T06:27:44;100180.13;;;9.04;60.62
60061;BME280;45933;51.336;12.612;2024-02-21T06:30:10;100189.66;;;9.03;60.45
60061;BME280;45933;51.336;12.612;2024-02-21T06:32:35;100188.75;;;8.89;61.24
60061;BME280;45933;51.336;12.612;2024-02-21T06:35:01;100189.63;;;8.93;60.88
60061;BME280;45933;51.336;12.612;2024-02-21T06:37:27;100189.63;;;8.88;61.17
60061;BME280;45933;51.336;12.612;2024-02-21T06:39:52;100197.41;;;8.89;60.98
60061;BME280;45933;51.336;12.612;2024-02-21T06:42:18;100199.13;;;8.90;60.77
60061;BME280;45933;51.336;12.612;2024-02-21T06:44:44;100193.94;;;8.81;61.71
60061;BME280;45933;51.336;12.612;2024-02-21T06:47:09;100210.41;;;8.86;61.29
60061;BME280;45933;51.336;12.612;2024-02-21T06:49:35;100216.47;;;8.87;61.41
60061;BME280;45933;51.336;12.612;2024-02-21T06:52:02;100214.75;;;8.86;61.39
60061;BME280;45933;51.336;12.612;2024-02-21T06:54:27;100225.16;;;8.86;61.60
60061;BME280;45933;51.336;12.612;2024-02-21T06:56:53;100216.47;;;8.88;61.53
60061;BME280;45933;51.336;12.612;2024-02-21T06:59:18;100218.22;;;8.94;61.17
60061;BME280;45933;51.336;12.612;2024-02-21T07:01:52;100223.44;;;8.97;61.52
60061;BME280;45933;51.336;12.612;2024-02-21T07:04:18;100235.56;;;8.92;61.38
60061;BME280;45933;51.336;12.612;2024-02-21T07:06:43;100246.81;;;8.96;61.41
60061;BME280;45933;51.336;12.612;2024-02-21T07:09:08;100239.03;;;9.00;61.43
60061;BME280;45933;51.336;12.612;2024-02-21T07:11:34;100248.56;;;9.01;61.08
60061;BME280;45933;51.336;12.612;2024-02-21T07:13:59;100240.78;;;9.06;60.92
60061;BME280;45933;51.336;12.612;2024-02-21T07:16:24;100229.53;;;9.02;61.31
60061;BME280;45933;51.336;12.612;2024-02-21T07:18:51;100232.13;;;9.05;61.04
60061;BME280;45933;51.336;12.612;2024-02-21T07:21:16;100221.72;;;8.99;61.42
60061;BME280;45933;51.336;12.612;2024-02-21T07:23:42;100228.66;;;9.03;61.32
60061;BME280;45933;51.336;12.612;2024-02-21T07:26:07;100230.41;;;9.03;61.04
60061;BME280;45933;51.336;12.612;2024-02-21T07:28:32;100230.38;;;9.06;61.10
60061;BME280;45933;51.336;12.612;2024-02-21T07:30:59;100236.47;;;9.03;61.36
60061;BME280;45933;51.336;12.612;2024-02-21T07:33:24;100236.44;;;9.06;61.14
60061;BME280;45933;51.336;12.612;2024-02-21T07:35:49;100245.13;;;9.08;61.32
60061;BME280;45933;51.336;12.612;2024-02-21T07:38:15;100243.41;;;9.12;61.02
60061;BME280;45933;51.336;12.612;2024-02-21T07:40:40;100242.56;;;9.13;60.93
60061;BME280;45933;51.336;12.612;2024-02-21T07:43:05;100242.56;;;9.14;60.80
60061;BME280;45933;51.336;12.612;2024-02-21T07:45:30;100246.88;;;9.15;60.65
60061;BME280;45933;51.336;12.612;2024-02-21T07:47:56;100239.06;;;9.17;60.77
60061;BME280;45933;51.336;12.612;2024-02-21T07:50:21;100243.41;;;9.16;60.89
60061;BME280;45933;51.336;12.612;2024-02-21T07:52:46;100247.78;;;9.19;60.89
60061;BME280;45933;51.336;12.612;2024-02-21T07:55:11;100238.22;;;9.21;60.55
60061;BME280;45933;51.336;12.612;2024-02-21T07:57:37;100234.78;;;9.19;60.93
60061;BME280;45933;51.336;12.612;2024-02-21T08:00:03;100222.63;;;9.21;60.84
60061;BME280;45933;51.336;12.612;2024-02-21T08:02:29;100221.78;;;9.24;60.48
60061;BME280;45933;51.336;12.612;2024-02-21T08:04:54;100220.03;;;9.24;61.11
60061;BME280;45933;51.336;12.612;2024-02-21T08:07:20;100212.22;;;9.23;60.99
60061;BME280;45933;51.336;12.612;2024-02-21T08:09:45;100204.44;;;9.26;61.22
60061;BME280;45933;51.336;12.612;2024-02-21T08:12:10;100207.03;;;9.21;61.32
60061;BME280;45933;51.336;12.612;2024-02-21T08:14:35;100195.78;;;9.28;60.79
60061;BME280;45933;51.336;12.612;2024-02-21T08:17:01;100199.25;;;9.30;60.66
60061;BME280;45933;51.336;12.612;2024-02-21T08:19:26;100191.44;;;9.30;60.69
60061;BME280;45933;51.336;12.612;2024-02-21T08:21:51;100180.16;;;9.36;60.98
60061;BME280;45933;51.336;12.612;2024-02-21T08:24:16;100181.03;;;9.39;60.72
60061;BME280;45933;51.336;12.612;2024-02-21T08:26:43;100185.38;;;9.40;60.47
60061;BME280;45933;51.336;12.612;2024-02-21T08:29:10;100182.75;;;9.43;60.12
60061;BME280;45933;51.336;12.612;2024-02-21T08:31:35;100192.31;;;9.46;60.10
60061;BME280;45933;51.336;12.612;2024-02-21T08:34:00;100185.38;;;9.50;60.27
60061;BME280;45933;51.336;12.612;2024-02-21T08:36:33;100181.03;;;9.58;60.52
60061;BME280;45933;51.336;12.612;2024-02-21T08:38:58;100190.56;;;9.59;60.06
60061;BME280;45933;51.336;12.612;2024-02-21T08:41:24;100190.59;;;9.60;60.14
60061;BME280;45933;51.336;12.612;2024-02-21T08:43:53;100187.13;;;9.67;60.19
60061;BME280;45933;51.336;12.612;2024-02-21T08:46:21;100197.53;;;9.71;60.12
60061;BME280;45933;51.336;12.612;2024-02-21T08:48:47;100200.13;;;9.69;60.06
60061;BME280;45933;51.336;12.612;2024-02-21T08:51:13;100211.41;;;9.74;60.08
60061;BME280;45933;51.336;12.612;2024-02-21T08:53:39;100208.81;;;9.76;60.12
60061;BME280;45933;51.336;12.612;2024-02-21T08:56:05;100198.41;;;9.76;60.12
60061;BME280;45933;51.336;12.612;2024-02-21T08:58:30;100206.19;;;9.73;60.36
60061;BME280;45933;51.336;12.612;2024-02-21T09:00:56;100206.19;;;9.79;59.78
60061;BME280;45933;51.336;12.612;2024-02-21T09:03:22;100206.19;;;9.80;60.37
60061;BME280;45933;51.336;12.612;2024-02-21T09:05:47;100209.69;;;9.82;60.15
60061;BME280;45933;51.336;12.612;2024-02-21T09:08:12;100209.69;;;9.87;59.82
60061;BME280;45933;51.336;12.612;2024-02-21T09:10:39;100198.41;;;9.86;59.85
60061;BME280;45933;51.336;12.612;2024-02-21T09:13:04;100212.28;;;9.87;60.11
60061;BME280;45933;51.336;12.612;2024-02-21T09:15:30;100213.13;;;9.90;60.09
60061;BME280;45933;51.336;12.612;2024-02-21T09:17:55;100201.00;;;9.88;59.82
60061;BME280;45933;51.336;12.612;2024-02-21T09:20:20;100200.13;;;9.92;59.69
60061;BME280;45933;51.336;12.612;2024-02-21T09:22:46;100209.69;;;9.91;59.49
60061;BME280;45933;51.336;12.612;2024-02-21T09:25:11;100213.16;;;9.92;59.74
60061;BME280;45933;51.336;12.612;2024-02-21T09:27:38;100195.78;;;9.92;59.76
60061;BME280;45933;51.336;12.612;2024-02-21T09:30:05;100202.72;;;9.84;59.62
60061;BME280;45933;51.336;12.612;2024-02-21T09:32:30;100195.78;;;9.88;59.75
60061;BME280;45933;51.336;12.612;2024-02-21T09:34:57;100194.03;;;9.88;59.56
60061;BME280;45933;51.336;12.612;2024-02-21T09:37:22;100192.28;;;9.90;59.67
60061;BME280;45933;51.336;12.612;2024-02-21T09:39:48;100199.25;;;9.90;59.66
60061;BME280;45933;51.336;12.612;2024-02-21T09:42:14;100196.66;;;9.82;60.29
60061;BME280;45933;51.336;12.612;2024-02-21T09:44:45;100194.03;;;9.90;59.76
60061;BME280;45933;51.336;12.612;2024-02-21T09:47:17;100194.03;;;9.94;59.77
60061;BME280;45933;51.336;12.612;2024-02-21T09:49:44;100197.50;;;9.93;59.98
60061;BME280;45933;51.336;12.612;2024-02-21T09:52:12;100193.16;;;9.95;59.82
60061;BME280;45933;51.336;12.612;2024-02-21T09:54:39;100199.22;;;9.96;60.16
60061;BME280;45933;51.336;12.612;2024-02-21T09:57:05;100190.56;;;9.97;60.02
60061;BME280;45933;51.336;12.612;2024-02-21T09:59:32;100200.09;;;10.01;59.92
60061;BME280;45933;51.336;12.612;2024-02-21T10:01:58;100199.25;;;10.02;59.77
60061;BME280;45933;51.336;12.612;2024-02-21T10:04:26;100195.75;;;10.05;59.77
60061;BME280;45933;51.336;12.612;2024-02-21T10:06:53;100181.84;;;10.10;59.70
60061;BME280;45933;51.336;12.612;2024-02-21T10:09:28;100187.03;;;10.12;59.58
60061;BME280;45933;51.336;12.612;2024-02-21T10:11:54;100182.72;;;10.14;59.90
60061;BME280;45933;51.336;12.612;2024-02-21T10:14:20;100179.22;;;10.19;59.62
60061;BME280;45933;51.336;12.612;2024-02-21T10:16:55;100179.22;;;10.27;59.40
60061;BME280;45933;51.336;12.612;2024-02-21T10:19:21;100167.94;;;10.27;59.23
60061;BME280;45933;51.336;12.612;2024-02-21T10:22:04;100163.59;;;10.39;58.77
60061;BME280;45933;51.336;12.612;2024-02-21T10:24:30;100173.13;;;10.37;58.54
60061;BME280;45933;51.336;12.612;2024-02-21T10:27:07;100166.19;;;10.44;58.43
60061;BME280;45933;51.336;12.612;2024-02-21T10:29:37;100176.59;;;10.44;58.64
60061;BME280;45933;51.336;12.612;2024-02-21T10:32:04;100167.91;;;10.45;58.41
60061;BME280;45933;51.336;12.612;2024-02-21T10:34:30;100164.47;;;10.34;58.41
60061;BME280;45933;51.336;12.612;2024-02-21T10:37:02;100159.22;;;10.40;58.31
60061;BME280;45933;51.336;12.612;2024-02-21T10:39:34;100155.72;;;10.42;58.53
60061;BME280;45933;51.336;12.612;2024-02-21T10:42:01;100142.75;;;10.39;58.60
60061;BME280;45933;51.336;12.612;2024-02-21T10:44:31;100141.84;;;10.42;58.96
60061;BME280;45933;51.336;12.612;2024-02-21T10:46:57;100140.09;;;10.45;58.98
60061;BME280;45933;51.336;12.612;2024-02-21T10:49:24;100138.34;;;10.47;58.62
60061;BME280;45933;51.336;12.612;2024-02-21T10:52:09;100140.91;;;10.54;58.74
60061;BME280;45933;51.336;12.612;2024-02-21T10:54:48;100140.06;;;10.56;58.82
60061;BME280;45933;51.336;12.612;2024-02-21T10:57:16;100133.94;;;10.59;58.80
60061;BME280;45933;51.336;12.612;2024-02-21T10:59:44;100131.34;;;10.62;58.77
60061;BME280;45933;51.336;12.612;2024-02-21T11:02:10;100128.72;;;10.63;58.82
60061;BME280;45933;51.336;12.612;2024-02-21T11:04:36;100128.72;;;10.63;58.70
60061;BME280;45933;51.336;12.612;2024-02-21T11:07:03;100114.78;;;10.67;58.49
60061;BME280;45933;51.336;12.612;2024-02-21T11:09:30;100124.31;;;10.73;58.52
60061;BME280;45933;51.336;12.612;2024-02-21T11:12:03;100103.47;;;10.76;58.41
60061;BME280;45933;51.336;12.612;2024-02-21T11:14:29;100098.22;;;10.78;58.14
60061;BME280;45933;51.336;12.612;2024-02-21T11:17:00;100099.06;;;10.83;57.52
60061;BME280;45933;51.336;12.612;2024-02-21T11:19:27;100099.91;;;10.86;57.95
60061;BME280;45933;51.336;12.612;2024-02-21T11:21:54;100088.59;;;10.87;57.89
60061;BME280;45933;51.336;12.612;2024-02-21T11:24:30;100093.72;;;10.96;57.80
60061;BME280;45933;51.336;12.612;2024-02-21T11:27:07;100083.38;;;10.89;57.64
60061;BME280;45933;51.336;12.612;2024-02-21T11:29:33;100078.06;;;10.99;57.94
60061;BME280;45933;51.336;12.612;2024-02-21T11:32:04;100066.78;;;10.99;57.63
60061;BME280;45933;51.336;12.612;2024-02-21T11:34:30;100066.72;;;11.05;57.70
60061;BME280;45933;51.336;12.612;2024-02-21T11:36:55;100057.16;;;11.06;57.37
60061;BME280;45933;51.336;12.612;2024-02-21T11:39:26;100044.94;;;11.11;57.49
60061;BME280;45933;51.336;12.612;2024-02-21T11:42:04;100027.53;;;11.14;57.50
60061;BME280;45933;51.336;12.612;2024-02-21T11:44:31;100025.81;;;11.13;57.43
60061;BME280;45933;51.336;12.612;2024-02-21T11:46:57;100018.78;;;11.20;57.05
60061;BME280;45933;51.336;12.612;2024-02-21T11:49:28;100017.91;;;11.21;57.07
60061;BME280;45933;51.336;12.612;2024-02-21T11:52:00;100010.81;;;11.32;57.22
60061;BME280;45933;51.336;12.612;2024-02-21T11:54:27;100004.78;;;11.30;57.44
60061;BME280;45933;51.336;12.612;2024-02-21T11:56:52;100002.16;;;11.30;57.16
60061;BME280;45933;51.336;12.612;2024-02-21T11:59:17;100000.41;;;11.34;57.48
60061;BME280;45933;51.336;12.612;2024-02-21T12:01:42;99996.09;;;11.30;56.77
60061;BME280;45933;51.336;12.612;2024-02-21T12:04:08;99990.75;;;11.39;56.78
60061;BME280;45933;51.336;12.612;2024-02-21T12:06:33;99984.66;;;11.38;56.72
60061;BME280;45933;51.336;12.612;2024-02-21T12:08:59;99975.03;;;11.45;56.40
60061;BME280;45933;51.336;12.612;2024-02-21T12:11:24;99978.53;;;11.45;56.66
60061;BME280;45933;51.336;12.612;2024-02-21T12:13:59;99983.63;;;11.56;56.62
60061;BME280;45933;51.336;12.612;2024-02-21T12:16:27;99976.69;;;11.52;56.65
60061;BME280;45933;51.336;12.612;2024-02-21T12:18:53;99975.84;;;11.51;56.64
60061;BME280;45933;51.336;12.612;2024-02-21T12:21:18;99961.00;;;11.55;56.72
60061;BME280;45933;51.336;12.612;2024-02-21T12:23:44;99962.84;;;11.45;55.94
60061;BME280;45933;51.336;12.612;2024-02-21T12:26:09;99954.09;;;11.51;56.71
60061;BME280;45933;51.336;12.612;2024-02-21T12:28:34;99948.03;;;11.47;56.41
60061;BME280;45933;51.336;12.612;2024-02-21T12:30:59;99943.69;;;11.46;56.37
60061;BME280;45933;51.336;12.612;2024-02-21T12:33:25;99941.00;;;11.56;55.97
60061;BME280;45933;51.336;12.612;2024-02-21T12:35:50;99938.31;;;11.59;55.83
60061;BME280;45933;51.336;12.612;2024-02-21T12:38:15;99938.38;;;11.56;56.40
60061;BME280;45933;51.336;12.612;2024-02-21T12:40:43;99937.44;;;11.60;56.60
60061;BME280;45933;51.336;12.612;2024-02-21T12:43:08;99932.22;;;11.61;56.37
60061;BME280;45933;51.336;12.612;2024-02-21T12:45:33;99933.97;;;11.59;56.27